createdAt,value
2023-04-11T00:00:36.974Z,101463.25
2023-04-11T00:03:07.249Z,101457.13
2023-04-11T00:05:37.073Z,101445.28
2023-04-11T00:08:05.238Z,101443.16
2023-04-11T00:10:33.471Z,101453.28
2023-04-11T00:13:01.502Z,101446.19
2023-04-11T00:15:29.503Z,101447.88
2023-04-11T00:17:58.597Z,101433.50
2023-04-11T00:20:26.701Z,101431.81
2023-04-11T00:22:58.362Z,101427.28
2023-04-11T00:25:27.094Z,101428.09
2023-04-11T00:27:55.405Z,101420.16
2023-04-11T00:30:23.740Z,101413.03
2023-04-11T00:32:51.758Z,101407.91
2023-04-11T00:35:20.020Z,101412.31
2023-04-11T00:37:49.482Z,101404.19
2023-04-11T00:40:19.174Z,101400.53
2023-04-11T00:42:47.162Z,101372.97
2023-04-11T00:45:15.541Z,101391.69
2023-04-11T00:47:43.630Z,101392.41
2023-04-11T00:50:14.028Z,101387.00
2023-04-11T00:52:43.834Z,101379.00
2023-04-11T00:55:11.895Z,101381.59
2023-04-11T00:57:42.843Z,101371.75
2023-04-11T01:00:11.989Z,101370.78
2023-04-11T01:02:43.641Z,101364.78
2023-04-11T01:05:13.184Z,101359.53
2023-04-11T01:07:43.370Z,101361.38
2023-04-11T01:10:12.535Z,101349.00
2023-04-11T01:12:42.775Z,101349.16
2023-04-11T01:15:12.276Z,101325.19
2023-04-11T01:17:41.816Z,101343.84
2023-04-11T01:20:13.024Z,101339.31
2023-04-11T01:22:44.063Z,101327.91
2023-04-11T01:25:15.650Z,101333.91
2023-04-11T01:27:45.011Z,101331.31
2023-04-11T01:30:13.594Z,101328.63
2023-04-11T01:32:41.774Z,101277.91
2023-04-11T01:35:11.378Z,101312.72
2023-04-11T01:37:39.776Z,101307.56
2023-04-11T01:40:09.902Z,101268.06
2023-04-11T01:42:39.963Z,101290.66
2023-04-11T01:45:09.627Z,101291.63
2023-04-11T01:47:37.858Z,101289.91
2023-04-11T01:50:07.389Z,101289.09
2023-04-11T01:52:35.343Z,101284.91
2023-04-11T01:55:04.257Z,101284.19
2023-04-11T01:57:33.150Z,101281.47
2023-04-11T02:00:02.584Z,101275.94
2023-04-11T02:02:31.025Z,101282.94
2023-04-11T02:04:59.004Z,101280.97
2023-04-11T02:07:27.482Z,101285.38
2023-04-11T02:09:55.484Z,101286.09
2023-04-11T02:12:23.531Z,101273.16
2023-04-11T02:14:51.580Z,101268.63
2023-04-11T02:17:22.335Z,101272.91
2023-04-11T02:19:51.727Z,101259.22
2023-04-11T02:22:19.657Z,101252.69
2023-04-11T02:24:47.845Z,101253.44
2023-04-11T02:27:15.727Z,101247.03
2023-04-11T02:29:43.767Z,101247.72
2023-04-11T02:32:11.880Z,101241.34
2023-04-11T02:34:41.409Z,101231.41
2023-04-11T02:37:09.515Z,101233.66
2023-04-11T02:39:37.428Z,101229.25
2023-04-11T02:42:05.486Z,101218.31
2023-04-11T02:44:33.707Z,101217.31
2023-04-11T02:47:02.359Z,101208.22
2023-04-11T02:49:31.218Z,101208.38
2023-04-11T02:52:01.498Z,101211.78
2023-04-11T02:54:29.523Z,101216.19
2023-04-11T02:57:02.149Z,101205.38
2023-04-11T02:59:30.629Z,101197.97
2023-04-11T03:02:00.847Z,101204.25
2023-04-11T03:04:29.697Z,101195.28
2023-04-11T03:07:08.439Z,101190.56
2023-04-11T03:09:36.723Z,101187.88
2023-04-11T03:12:04.920Z,101188.88
2023-04-11T03:14:33.863Z,101190.56
2023-04-11T03:17:01.770Z,101187.88
2023-04-11T03:19:33.323Z,101185.19
2023-04-11T03:22:02.991Z,101177.50
2023-04-11T03:24:32.424Z,101177.50
2023-04-11T03:27:01.442Z,101162.69
2023-04-11T03:29:29.817Z,101170.66
2023-04-11T03:32:08.999Z,101162.97
2023-04-11T03:34:38.688Z,101167.53
2023-04-11T03:37:09.055Z,101152.31
2023-04-11T03:39:40.473Z,101151.47
2023-04-11T03:42:08.559Z,101150.88
2023-04-11T03:44:36.641Z,101151.03
2023-04-11T03:47:04.947Z,101143.06
2023-04-11T03:49:39.546Z,101146.03
2023-04-11T03:52:09.769Z,101139.66
2023-04-11T03:54:38.623Z,101142.50
2023-04-11T03:57:11.799Z,101132.25
2023-04-11T03:59:40.366Z,101133.97
2023-04-11T04:02:10.756Z,101134.25
2023-04-11T04:04:48.618Z,101132.53
2023-04-11T04:07:24.126Z,101143.56
2023-04-11T04:09:56.830Z,101123.53
2023-04-11T04:12:26.987Z,101125.69
2023-04-11T04:15:08.299Z,101122.22
2023-04-11T04:17:37.044Z,101126.81
2023-04-11T04:20:11.351Z,101109.59
2023-04-11T04:22:41.217Z,101058.78
2023-04-11T04:25:12.675Z,101119.84
2023-04-11T04:27:44.297Z,101118.72
2023-04-11T04:30:15.800Z,101115.00
2023-04-11T04:33:12.148Z,101106.63
2023-04-11T04:35:43.556Z,101109.94
2023-04-11T04:38:17.934Z,101110.47
2023-04-11T04:40:54.719Z,101104.69
2023-04-11T04:43:27.399Z,101108.94
2023-04-11T04:46:18.285Z,101111.38
2023-04-11T04:48:50.686Z,101101.25
2023-04-11T04:51:19.123Z,101100.81
2023-04-11T04:53:47.792Z,101074.97
2023-04-11T04:56:16.351Z,101096.69
2023-04-11T04:58:48.436Z,101088.31
2023-04-11T05:01:18.355Z,101069.09
2023-04-11T05:03:50.878Z,101080.47
2023-04-11T05:06:29.299Z,101081.91
2023-04-11T05:08:58.657Z,101072.66
2023-04-11T05:11:27.511Z,101074.91
2023-04-11T05:13:57.152Z,101078.19
2023-04-11T05:16:25.894Z,101068.19
2023-04-11T05:18:54.253Z,101061.41
2023-04-11T05:21:22.344Z,101077.88
2023-04-11T05:23:52.997Z,101061.53
2023-04-11T05:26:21.019Z,101060.50
2023-04-11T05:28:49.065Z,101048.56
2023-04-11T05:31:22.561Z,101064.47
2023-04-11T05:33:50.659Z,101053.56
2023-04-11T05:36:18.887Z,101059.38
2023-04-11T05:38:47.313Z,101023.97
2023-04-11T05:41:15.494Z,101053.94
2023-04-11T05:43:43.683Z,101050.94
2023-04-11T05:46:12.833Z,101041.69
2023-04-11T05:48:42.512Z,101045.78
2023-04-11T05:51:10.596Z,101046.63
2023-04-11T05:53:38.715Z,101058.88
2023-04-11T05:56:07.428Z,101047.78
2023-04-11T05:58:37.071Z,101044.59
2023-04-11T06:01:07.353Z,101037.19
2023-04-11T06:03:35.649Z,101039.59
2023-04-11T06:06:05.607Z,101032.19
2023-04-11T06:08:34.383Z,101034.59
2023-04-11T06:11:02.337Z,101024.47
2023-04-11T06:13:30.341Z,101029.88
2023-04-11T06:15:58.364Z,101023.47
2023-04-11T06:18:26.407Z,101029.56
2023-04-11T06:20:54.869Z,101012.88
2023-04-11T06:23:24.316Z,101005.31
2023-04-11T06:25:53.089Z,101009.44
2023-04-11T06:28:21.138Z,101011.16
2023-04-11T06:30:49.218Z,101011.56
2023-04-11T06:33:17.402Z,101015.97
2023-04-11T06:35:45.410Z,101009.53
2023-04-11T06:38:13.408Z,101000.44
2023-04-11T06:40:42.727Z,100999.44
2023-04-11T06:43:11.274Z,101006.06
2023-04-11T06:45:39.338Z,101013.19
2023-04-11T06:48:07.690Z,100998.50
2023-04-11T06:50:39.088Z,100993.66
2023-04-11T06:53:07.100Z,100995.88
2023-04-11T06:55:34.978Z,100987.47
2023-04-11T06:58:04.350Z,100989.53
2023-04-11T07:00:32.550Z,100972.59
2023-04-11T07:03:01.128Z,100983.88
2023-04-11T07:05:29.230Z,100982.41
2023-04-11T07:07:57.363Z,100974.16
2023-04-11T07:10:26.013Z,100981.63
2023-04-11T07:12:53.948Z,100980.34
2023-04-11T07:15:23.913Z,100973.59
2023-04-11T07:17:52.824Z,100963.31
2023-04-11T07:20:21.165Z,100964.69
2023-04-11T07:22:49.073Z,100960.81
2023-04-11T07:25:17.155Z,100958.47
2023-04-11T07:27:46.467Z,100960.19
2023-04-11T07:30:15.425Z,100954.59
2023-04-11T07:32:44.892Z,100973.25
2023-04-11T07:35:13.099Z,100954.13
2023-04-11T07:37:42.431Z,100956.69
2023-04-11T07:40:13.838Z,100947.84
2023-04-11T07:42:42.182Z,100957.22
2023-04-11T07:45:10.471Z,100953.34
2023-04-11T07:47:38.561Z,100938.63
2023-04-11T07:50:08.460Z,100939.97
2023-04-11T07:52:36.476Z,100951.38
2023-04-11T07:55:05.258Z,100945.09
2023-04-11T07:57:33.393Z,100959.63
2023-04-11T08:00:01.921Z,100947.97
2023-04-11T08:02:40.051Z,100944.22
2023-04-11T08:05:10.560Z,100940.34
2023-04-11T08:07:38.526Z,100932.22
2023-04-11T08:10:07.824Z,100933.94
2023-04-11T08:12:35.770Z,100926.78
2023-04-11T08:15:03.803Z,100924.75
2023-04-11T08:17:37.741Z,100931.91
2023-04-11T08:20:09.064Z,100929.19
2023-04-11T08:22:39.051Z,100924.75
2023-04-11T08:25:09.719Z,100929.72
2023-04-11T08:27:37.735Z,100920.56
2023-04-11T08:30:08.427Z,100909.28
2023-04-11T08:32:36.633Z,100909.97
2023-04-11T08:35:05.135Z,100912.69
2023-04-11T08:37:33.243Z,100919.63
2023-04-11T08:40:06.668Z,100907.06
2023-04-11T08:42:36.500Z,100905.03
2023-04-11T08:45:08.874Z,100897.94
2023-04-11T08:47:37.489Z,100841.31
2023-04-11T08:50:05.897Z,100898.63
2023-04-11T08:52:35.260Z,100894.72
2023-04-11T08:55:04.966Z,100886.22
2023-04-11T08:57:33.035Z,100896.44
2023-04-11T09:00:14.358Z,100888.13
2023-04-11T09:02:59.675Z,100901.19
2023-04-11T09:05:29.758Z,100884.41
2023-04-11T09:07:59.028Z,100890.03
2023-04-11T09:10:29.166Z,100875.47
2023-04-11T09:12:57.741Z,100869.19
2023-04-11T09:15:27.633Z,100861.91
2023-04-11T09:18:00.382Z,100866.47
2023-04-11T09:20:30.337Z,100849.00
2023-04-11T09:22:59.931Z,100858.00
2023-04-11T09:25:29.760Z,100855.09
2023-04-11T09:28:11.620Z,100843.06
2023-04-11T09:30:39.942Z,100844.44
2023-04-11T09:33:28.692Z,100839.34
2023-04-11T09:35:57.759Z,100839.00
2023-04-11T09:38:30.813Z,100827.97
2023-04-11T09:41:01.669Z,100846.28
2023-04-11T09:43:49.060Z,100837.63
2023-04-11T09:46:18.760Z,100837.81
2023-04-11T09:48:47.290Z,100830.16
2023-04-11T09:51:28.105Z,100832.88
2023-04-11T09:54:04.650Z,100834.75
2023-04-11T09:56:35.578Z,100824.06
2023-04-11T09:59:05.232Z,100824.53
2023-04-11T10:01:33.646Z,100827.44
2023-04-11T10:04:02.021Z,100828.44
2023-04-11T10:06:34.047Z,100815.66
2023-04-11T10:09:11.158Z,100830.66
2023-04-11T10:11:43.952Z,100828.53
2023-04-11T10:14:43.163Z,100823.13
2023-04-11T10:17:20.634Z,100828.00
2023-04-11T10:19:51.594Z,100822.09
2023-04-11T10:22:56.019Z,100818.66
2023-04-11T10:25:24.918Z,100775.53
2023-04-11T10:28:00.612Z,100813.06
2023-04-11T10:31:00.021Z,100815.25
2023-04-11T10:33:28.122Z,100807.78
2023-04-11T10:36:03.180Z,100808.78
2023-04-11T10:38:48.291Z,100828.75
2023-04-11T10:41:21.037Z,100824.69
2023-04-11T10:43:51.120Z,100825.84
2023-04-11T10:46:21.711Z,100823.47
2023-04-11T10:49:00.612Z,100818.34
2023-04-11T10:51:29.776Z,100822.41
2023-04-11T10:53:59.752Z,100807.78
2023-04-11T10:56:55.026Z,100811.22
2023-04-11T11:00:13.927Z,100807.28
2023-04-11T11:02:42.687Z,100808.72
2023-04-11T11:05:20.503Z,100802.63
2023-04-11T11:07:53.519Z,100769.13
2023-04-11T11:10:40.719Z,100804.81
2023-04-11T11:13:09.599Z,100804.25
2023-04-11T11:15:39.756Z,100786.47
2023-04-11T11:18:09.997Z,100787.81
2023-04-11T11:20:38.723Z,100792.06
2023-04-11T11:23:08.237Z,100756.25
2023-04-11T11:25:36.666Z,100760.63
2023-04-11T11:28:07.297Z,100791.06
2023-04-11T11:30:35.526Z,100785.78
2023-04-11T11:33:18.921Z,100783.56
2023-04-11T11:35:53.922Z,100782.41
2023-04-11T11:38:23.608Z,100779.00
2023-04-11T11:40:52.350Z,100782.41
2023-04-11T11:43:20.612Z,100770.03
2023-04-11T11:45:48.861Z,100769.66
2023-04-11T11:48:25.780Z,100742.66
2023-04-11T11:50:58.403Z,100761.31
2023-04-11T11:53:26.900Z,100774.03
2023-04-11T11:55:55.228Z,100761.78
2023-04-11T11:58:23.259Z,100770.22
2023-04-11T12:00:52.764Z,100760.56
2023-04-11T12:03:25.154Z,100727.97
2023-04-11T12:05:58.456Z,100749.38
2023-04-11T12:08:27.262Z,100761.53
2023-04-11T12:10:55.164Z,100753.72
2023-04-11T12:13:27.071Z,100758.75
2023-04-11T12:15:56.879Z,100752.31
2023-04-11T12:18:27.498Z,100754.91
2023-04-11T12:20:56.147Z,100727.00
2023-04-11T12:23:24.576Z,100755.75
2023-04-11T12:25:52.524Z,100754.03
2023-04-11T12:28:20.684Z,100756.56
2023-04-11T12:30:48.743Z,100756.56
2023-04-11T12:33:17.465Z,100759.91
2023-04-11T12:35:46.796Z,100754.91
2023-04-11T12:38:17.501Z,100749.63
2023-04-11T12:40:46.622Z,100764.00
2023-04-11T12:43:14.629Z,100745.81
2023-04-11T12:45:42.660Z,100666.53
2023-04-11T12:48:10.690Z,100749.22
2023-04-11T12:50:38.886Z,100742.81
2023-04-11T12:53:08.228Z,100748.38
2023-04-11T12:55:36.308Z,100740.41
2023-04-11T12:58:04.339Z,100741.75
2023-04-11T13:00:32.307Z,100736.47
2023-04-11T13:03:00.991Z,100735.78
2023-04-11T13:05:29.375Z,100740.50
2023-04-11T13:07:57.394Z,100735.25
2023-04-11T13:10:26.767Z,100731.16
2023-04-11T13:12:58.589Z,100722.66
2023-04-11T13:15:27.118Z,100730.41
2023-04-11T13:17:55.232Z,100739.91
2023-04-11T13:20:23.388Z,100711.53
2023-04-11T13:22:51.969Z,100727.53
2023-04-11T13:25:20.070Z,100730.09
2023-04-11T13:27:49.572Z,100736.50
2023-04-11T13:30:17.612Z,100718.44
2023-04-11T13:32:45.632Z,100724.84
2023-04-11T13:35:13.724Z,100727.53
2023-04-11T13:37:41.921Z,100725.84
2023-04-11T13:40:12.378Z,100717.97
2023-04-11T13:42:40.394Z,100721.25
2023-04-11T13:45:10.637Z,100714.19
2023-04-11T13:47:39.198Z,100718.72
2023-04-11T13:50:09.207Z,100717.88
2023-04-11T13:52:37.505Z,100716.19
2023-04-11T13:55:06.421Z,100710.78
2023-04-11T13:57:34.453Z,100706.00
2023-04-11T14:00:04.967Z,100703.13
2023-04-11T14:02:34.555Z,100701.75
2023-04-11T14:05:02.661Z,100696.03
2023-04-11T14:07:30.641Z,100693.56
2023-04-11T14:09:58.580Z,100709.69
2023-04-11T14:12:27.493Z,100707.00
2023-04-11T14:14:55.736Z,100697.50
2023-04-11T14:17:23.809Z,100698.66
2023-04-11T14:19:53.243Z,100687.00
2023-04-11T14:22:21.407Z,100690.84
2023-04-11T14:24:49.266Z,100705.22
2023-04-11T14:27:17.298Z,100685.28
2023-04-11T14:29:46.259Z,100702.34
2023-04-11T14:32:14.350Z,100698.66
2023-04-11T14:34:42.355Z,100680.34
2023-04-11T14:37:11.884Z,100688.69
2023-04-11T14:39:39.939Z,100686.22
2023-04-11T14:42:09.096Z,100689.88
2023-04-11T14:44:39.261Z,100661.50
2023-04-11T14:47:07.370Z,100690.31
2023-04-11T14:49:35.468Z,100692.94
2023-04-11T14:52:03.556Z,100684.13
2023-04-11T14:54:32.769Z,100678.56
2023-04-11T14:57:00.726Z,100675.88
2023-04-11T14:59:28.709Z,100681.59
2023-04-11T15:01:57.237Z,100676.84
2023-04-11T15:04:25.309Z,100668.91
2023-04-11T15:06:53.506Z,100677.16
2023-04-11T15:09:22.038Z,100669.22
2023-04-11T15:11:51.613Z,100675.50
2023-04-11T15:14:20.065Z,100681.34
2023-04-11T15:16:48.095Z,100673.22
2023-04-11T15:19:16.519Z,100669.69
2023-04-11T15:21:46.204Z,100669.84
2023-04-11T15:24:14.302Z,100662.88
2023-04-11T15:26:44.657Z,100600.88
2023-04-11T15:29:16.755Z,100658.63
2023-04-11T15:31:44.786Z,100666.91
2023-04-11T15:34:14.038Z,100654.66
2023-04-11T15:36:43.022Z,100662.25
2023-04-11T15:39:11.047Z,100662.94
2023-04-11T15:41:39.016Z,100671.19
2023-04-11T15:44:06.959Z,100672.69
2023-04-11T15:46:36.355Z,100675.22
2023-04-11T15:49:04.468Z,100654.78
2023-04-11T15:51:32.409Z,100677.38
2023-04-11T15:54:00.465Z,100681.09
2023-04-11T15:56:28.627Z,100680.41
2023-04-11T15:58:56.620Z,100679.56
2023-04-11T16:01:25.201Z,100678.72
2023-04-11T16:03:55.211Z,100676.31
2023-04-11T16:06:23.428Z,100674.75
2023-04-11T16:08:51.747Z,100681.31
2023-04-11T16:11:19.797Z,100678.78
2023-04-11T16:13:47.747Z,100674.38
2023-04-11T16:16:15.898Z,100670.81
2023-04-11T16:18:43.920Z,100670.44
2023-04-11T16:21:16.631Z,100671.97
2023-04-11T16:23:44.735Z,100669.56
2023-04-11T16:26:12.859Z,100676.00
2023-04-11T16:28:40.989Z,100675.16
2023-04-11T16:31:09.352Z,100677.16
2023-04-11T16:33:37.497Z,100677.47
2023-04-11T16:36:06.255Z,100675.22
2023-04-11T16:38:35.701Z,100676.78
2023-04-11T16:41:03.607Z,100666.09
2023-04-11T16:43:31.574Z,100681.63
2023-04-11T16:45:59.510Z,100682.59
2023-04-11T16:48:27.661Z,100691.72
2023-04-11T16:50:55.692Z,100685.47
2023-04-11T16:53:23.711Z,100684.47
2023-04-11T16:55:53.621Z,100686.34
2023-04-11T16:58:21.687Z,100694.44
2023-04-11T17:00:51.179Z,100687.19
2023-04-11T17:03:19.823Z,100682.22
2023-04-11T17:05:47.939Z,100691.88
2023-04-11T17:08:15.948Z,100689.16
2023-04-11T17:10:44.181Z,100686.63
2023-04-11T17:13:14.805Z,100691.19
2023-04-11T17:15:42.841Z,100688.63
2023-04-11T17:18:11.006Z,100697.03
2023-04-11T17:20:39.017Z,100617.28
2023-04-11T17:23:07.417Z,100708.16
2023-04-11T17:25:36.309Z,100696.50
2023-04-11T17:28:04.317Z,100712.97
2023-04-11T17:30:33.876Z,100707.72
2023-04-11T17:33:01.988Z,100707.84
2023-04-11T17:35:30.101Z,100707.31
2023-04-11T17:37:57.974Z,100699.50
2023-04-11T17:40:25.972Z,100700.50
2023-04-11T17:42:53.886Z,100697.09
2023-04-11T17:45:22.398Z,100688.59
2023-04-11T17:47:51.835Z,100698.25
2023-04-11T17:50:20.098Z,100698.56
2023-04-11T17:52:48.416Z,100696.13
2023-04-11T17:55:18.160Z,100702.56
2023-04-11T17:57:48.732Z,100704.56
2023-04-11T18:00:19.431Z,100706.69
2023-04-11T18:02:49.523Z,100699.47
2023-04-11T18:05:24.601Z,100700.44
2023-04-11T18:10:23.228Z,100700.91
2023-04-11T18:12:52.791Z,100686.84
2023-04-11T18:15:21.334Z,100694.81
2023-04-11T18:17:49.872Z,100696.09
2023-04-11T18:20:19.532Z,100692.00
2023-04-11T18:22:49.539Z,100697.81
2023-04-11T18:25:17.619Z,100672.81
2023-04-11T18:27:45.629Z,100687.28
2023-04-11T18:30:15.325Z,100662.78
2023-04-11T18:32:48.959Z,100690.97
2023-04-11T18:35:19.821Z,100698.78
2023-04-11T18:37:47.901Z,100704.19
2023-04-11T18:40:17.111Z,100703.66
2023-04-11T18:42:47.874Z,100699.81
2023-04-11T18:45:17.908Z,100703.50
2023-04-11T18:47:46.520Z,100705.34
2023-04-11T18:50:14.870Z,100699.94
2023-04-11T18:52:45.481Z,100704.47
2023-04-11T18:55:15.536Z,100709.88
2023-04-11T18:57:46.559Z,100702.91
2023-04-11T19:00:19.280Z,100709.88
2023-04-11T19:02:50.232Z,100713.59
2023-04-11T19:05:19.107Z,100717.16
2023-04-11T19:07:48.790Z,100717.84
2023-04-11T19:10:20.292Z,100708.19
2023-04-11T19:12:48.369Z,100708.72
2023-04-11T19:15:16.453Z,100711.28
2023-04-11T19:17:44.462Z,100710.28
2023-04-11T19:20:13.705Z,100706.59
2023-04-11T19:22:42.001Z,100714.69
2023-04-11T19:25:12.720Z,100715.38
2023-04-11T19:27:42.590Z,100713.84
2023-04-11T19:30:13.578Z,100712.00
2023-04-11T19:32:43.782Z,100722.94
2023-04-11T19:35:12.624Z,100716.69
2023-04-11T19:37:40.997Z,100685.38
2023-04-11T19:40:11.013Z,100724.91
2023-04-11T19:42:40.956Z,100724.91
2023-04-11T19:45:10.481Z,100707.06
2023-04-11T19:47:39.901Z,100721.41
2023-04-11T19:50:11.833Z,100736.72
2023-04-11T19:52:40.336Z,100726.38
2023-04-11T19:55:10.118Z,100735.88
2023-04-11T19:57:38.918Z,100709.50
2023-04-11T20:00:12.406Z,100730.63
2023-04-11T20:02:44.523Z,100738.75
2023-04-11T20:05:13.716Z,100698.75
2023-04-11T20:07:42.483Z,100738.88
2023-04-11T20:10:11.590Z,100733.47
2023-04-11T20:12:39.580Z,100725.38
2023-04-11T20:15:11.717Z,100722.66
2023-04-11T20:17:39.856Z,100730.78
2023-04-11T20:20:11.302Z,100727.38
2023-04-11T20:22:40.599Z,100737.19
2023-04-11T20:25:11.402Z,100728.22
2023-04-11T20:27:39.944Z,100731.22
2023-04-11T20:30:10.862Z,100709.22
2023-04-11T20:32:39.243Z,100737.75
2023-04-11T20:35:12.060Z,100739.59
2023-04-11T20:37:41.067Z,100737.75
2023-04-11T20:40:10.262Z,100746.72
2023-04-11T20:42:42.408Z,100731.09
2023-04-11T20:45:15.617Z,100745.69
2023-04-11T20:47:45.986Z,100728.53
2023-04-11T20:50:15.785Z,100733.06
2023-04-11T20:52:45.716Z,100726.97
2023-04-11T20:55:15.726Z,100730.53
2023-04-11T20:57:44.690Z,100727.81
2023-04-11T21:00:16.992Z,100728.66
2023-04-11T21:02:46.794Z,100732.38
2023-04-11T21:05:15.336Z,100726.28
2023-04-11T21:07:43.455Z,100727.41
2023-04-11T21:10:12.392Z,100720.47
2023-04-11T21:12:40.852Z,100724.16
2023-04-11T21:15:10.342Z,100716.88
2023-04-11T21:17:40.468Z,100698.19
2023-04-11T21:20:17.780Z,100720.34
2023-04-11T21:22:46.631Z,100722.72
2023-04-11T21:25:14.840Z,100724.59
2023-04-11T21:27:42.903Z,100712.50
2023-04-11T21:30:12.212Z,100714.19
2023-04-11T21:32:42.106Z,100716.88
2023-04-11T21:35:11.814Z,100722.19
2023-04-11T21:37:40.071Z,100727.56
2023-04-11T21:40:09.083Z,100714.50
2023-04-11T21:42:37.095Z,100728.44
2023-04-11T21:45:05.540Z,100705.72
2023-04-11T21:47:33.504Z,100732.13
2023-04-11T21:50:03.122Z,100737.50
2023-04-11T21:52:31.020Z,100736.63
2023-04-11T21:54:59.071Z,100748.31
2023-04-11T21:57:27.074Z,100746.03
2023-04-11T21:59:54.964Z,100748.44
2023-04-11T22:02:23.302Z,100752.81
2023-04-11T22:05:05.028Z,100743.84
2023-04-11T22:07:39.493Z,100745.59
2023-04-11T22:10:11.627Z,100750.72
2023-04-11T22:12:40.266Z,100751.41
2023-04-11T22:15:12.480Z,100743.31
2023-04-11T22:17:43.623Z,100745.91
2023-04-11T22:20:12.711Z,100742.88
2023-04-11T22:22:42.098Z,100747.13
2023-04-11T22:25:11.514Z,100732.94
2023-04-11T22:27:39.524Z,100737.75
2023-04-11T22:30:08.789Z,100729.38
2023-04-11T22:32:37.100Z,100727.50
2023-04-11T22:35:06.740Z,100740.00
2023-04-11T22:37:34.765Z,100735.47
2023-04-11T22:40:06.128Z,100739.88
2023-04-11T22:42:34.121Z,100737.19
2023-04-11T22:45:02.011Z,100739.72
2023-04-11T22:47:32.514Z,100737.88
2023-04-11T22:50:00.502Z,100743.13
2023-04-11T22:52:30.327Z,100734.16
2023-04-11T22:54:58.372Z,100741.44
2023-04-11T22:57:27.794Z,100744.84
2023-04-11T22:59:55.760Z,100738.41
2023-04-11T23:02:25.282Z,100746.50
2023-04-11T23:04:53.684Z,100740.28
2023-04-11T23:07:22.363Z,100723.06
2023-04-11T23:09:52.628Z,100722.22
2023-04-11T23:12:20.979Z,100716.69
2023-04-11T23:14:50.421Z,100715.84
2023-04-11T23:17:18.418Z,100717.56
2023-04-11T23:19:47.106Z,100714.69
2023-04-11T23:22:15.122Z,100710.00
2023-04-11T23:24:43.191Z,100708.31
2023-04-11T23:27:11.658Z,100709.28
2023-04-11T23:29:39.881Z,100708.59
2023-04-11T23:32:09.358Z,100702.50
2023-04-11T23:34:37.228Z,100703.66
2023-04-11T23:37:05.253Z,100689.88
2023-04-11T23:39:33.168Z,100699.41
2023-04-11T23:42:01.095Z,100699.53
2023-04-11T23:44:29.113Z,100696.81
2023-04-11T23:46:57.083Z,100704.91
2023-04-11T23:49:26.707Z,100703.38
2023-04-11T23:51:54.589Z,100714.00
2023-04-11T23:54:22.672Z,100715.03
2023-04-11T23:56:50.849Z,100720.44
2023-04-11T23:59:18.773Z,100715.03
